sensor_id;sensor_type;location;lat;lon;timestamp;temperature;humidity
2657;DHT22;1338;48.176;11.792;2024-02-23T00:00:57;7.80;99.90
2657;DHT22;1338;48.176;11.792;2024-02-23T00:03:26;7.80;99.90
2657;DHT22;1338;48.176;11.792;2024-02-23T00:05:57;7.60;1.00
2657;DHT22;1338;48.176;11.792;2024-02-23T00:08:27;7.50;1.00
2657;DHT22;1338;48.176;11.792;2024-02-23T00:10:55;7.70;99.90
2657;DHT22;1338;48.176;11.792;2024-02-23T00:13:23;7.60;99.90
2657;DHT22;1338;48.176;11.792;2024-02-23T00:15:51;7.50;99.90
2657;DHT22;1338;48.176;11.792;2024-02-23T00:18:19;7.50;99.90
2657;DHT22;1338;48.176;11.792;2024-02-23T00:20:48;7.30;99.90
2657;DHT22;1338;48.176;11.792;2024-02-23T00:23:18;7.40;99.90
2657;DHT22;1338;48.176;11.792;2024-02-23T00:25:47;7.30;99.90
2657;DHT22;1338;48.176;11.792;2024-02-23T00:28:16;7.20;1.00
2657;DHT22;1338;48.176;11.792;2024-02-23T00:30:44;7.20;1.00
2657;DHT22;1338;48.176;11.792;2024-02-23T00:33:13;7.20;99.90
2657;DHT22;1338;48.176;11.792;2024-02-23T00:35:41;7.30;99.90
2657;DHT22;1338;48.176;11.792;2024-02-23T00:38:09;7.30;99.90
2657;DHT22;1338;48.176;11.792;2024-02-23T00:40:39;7.20;99.90
2657;DHT22;1338;48.176;11.792;2024-02-23T00:43:08;7.20;99.90
2657;DHT22;1338;48.176;11.792;2024-02-23T00:45:36;7.10;99.90
2657;DHT22;1338;48.176;11.792;2024-02-23T00:48:07;7.10;99.90
2657;DHT22;1338;48.176;11.792;2024-02-23T00:50:36;7.10;99.90
2657;DHT22;1338;48.176;11.792;2024-02-23T00:53:04;7.20;99.90
2657;DHT22;1338;48.176;11.792;2024-02-23T00:55:32;7.20;99.90
2657;DHT22;1338;48.176;11.792;2024-02-23T00:58:01;7.10;99.90
2657;DHT22;1338;48.176;11.792;2024-02-23T01:00:30;7.10;99.90
2657;DHT22;1338;48.176;11.792;2024-02-23T01:02:59;7.10;99.90
2657;DHT22;1338;48.176;11.792;2024-02-23T01:05:27;7.10;99.90
2657;DHT22;1338;48.176;11.792;2024-02-23T01:07:55;7.10;99.90
2657;DHT22;1338;48.176;11.792;2024-02-23T01:10:24;7.10;99.90
2657;DHT22;1338;48.176;11.792;2024-02-23T01:12:52;7.00;99.90
2657;DHT22;1338;48.176;11.792;2024-02-23T01:15:22;6.90;99.90
2657;DHT22;1338;48.176;11.792;2024-02-23T01:17:50;7.10;99.90
2657;DHT22;1338;48.176;11.792;2024-02-23T01:20:18;7.00;99.90
2657;DHT22;1338;48.176;11.792;2024-02-23T01:22:46;7.00;99.90
2657;DHT22;1338;48.176;11.792;2024-02-23T01:25:15;7.00;99.90
2657;DHT22;1338;48.176;11.792;2024-02-23T01:27:43;6.80;99.90
2657;DHT22;1338;48.176;11.792;2024-02-23T01:30:12;6.90;99.90
2657;DHT22;1338;48.176;11.792;2024-02-23T01:32:42;6.80;99.90
2657;DHT22;1338;48.176;11.792;2024-02-23T01:35:10;6.90;99.90
2657;DHT22;1338;48.176;11.792;2024-02-23T01:37:39;6.80;99.90
2657;DHT22;1338;48.176;11.792;2024-02-23T01:40:07;6.90;99.90
2657;DHT22;1338;48.176;11.792;2024-02-23T01:42:36;7.00;99.90
2657;DHT22;1338;48.176;11.792;2024-02-23T01:45:05;6.80;99.90
2657;DHT22;1338;48.176;11.792;2024-02-23T01:47:34;6.90;99.90
2657;DHT22;1338;48.176;11.792;2024-02-23T01:50:04;6.80;99.90
2657;DHT22;1338;48.176;11.792;2024-02-23T01:52:35;6.90;99.90
2657;DHT22;1338;48.176;11.792;2024-02-23T01:55:04;6.90;99.90
2657;DHT22;1338;48.176;11.792;2024-02-23T01:57:32;6.80;99.90
2657;DHT22;1338;48.176;11.792;2024-02-23T02:00:18;6.90;99.90
2657;DHT22;1338;48.176;11.792;2024-02-23T02:02:53;6.90;99.90
2657;DHT22;1338;48.176;11.792;2024-02-23T02:05:24;6.80;99.90
2657;DHT22;1338;48.176;11.792;2024-02-23T02:07:53;6.80;99.90
2657;DHT22;1338;48.176;11.792;2024-02-23T02:10:26;6.70;99.90
2657;DHT22;1338;48.176;11.792;2024-02-23T02:12:54;6.80;99.90
2657;DHT22;1338;48.176;11.792;2024-02-23T02:15:22;6.70;99.90
2657;DHT22;1338;48.176;11.792;2024-02-23T02:17:51;6.60;99.90
2657;DHT22;1338;48.176;11.792;2024-02-23T02:20:25;6.60;99.90
2657;DHT22;1338;48.176;11.792;2024-02-23T02:22:54;6.50;99.90
2657;DHT22;1338;48.176;11.792;2024-02-23T02:25:22;6.40;99.90
2657;DHT22;1338;48.176;11.792;2024-02-23T02:27:50;6.50;99.90
2657;DHT22;1338;48.176;11.792;2024-02-23T02:30:18;6.30;99.90
2657;DHT22;1338;48.176;11.792;2024-02-23T02:32:47;6.40;99.90
2657;DHT22;1338;48.176;11.792;2024-02-23T02:35:15;6.50;99.90
2657;DHT22;1338;48.176;11.792;2024-02-23T02:37:45;6.30;99.90
2657;DHT22;1338;48.176;11.792;2024-02-23T02:40:15;6.30;99.90
2657;DHT22;1338;48.176;11.792;2024-02-23T02:42:43;6.40;99.90
2657;DHT22;1338;48.176;11.792;2024-02-23T02:45:11;6.30;99.90
2657;DHT22;1338;48.176;11.792;2024-02-23T02:47:40;6.40;99.90
2657;DHT22;1338;48.176;11.792;2024-02-23T02:50:09;6.50;99.90
2657;DHT22;1338;48.176;11.792;2024-02-23T02:52:38;6.50;99.90
2657;DHT22;1338;48.176;11.792;2024-02-23T02:55:10;6.30;99.90
2657;DHT22;1338;48.176;11.792;2024-02-23T02:57:38;6.50;99.90
2657;DHT22;1338;48.176;11.792;2024-02-23T03:00:10;6.30;99.90
2657;DHT22;1338;48.176;11.792;2024-02-23T03:02:38;6.30;99.90
2657;DHT22;1338;48.176;11.792;2024-02-23T03:05:08;6.40;99.90
2657;DHT22;1338;48.176;11.792;2024-02-23T03:07:37;6.20;99.90
2657;DHT22;1338;48.176;11.792;2024-02-23T03:10:06;6.20;98.70
2657;DHT22;1338;48.176;11.792;2024-02-23T03:12:36;6.10;99.90
2657;DHT22;1338;48.176;11.792;2024-02-23T03:15:05;6.00;99.90
2657;DHT22;1338;48.176;11.792;2024-02-23T03:17:34;6.00;99.90
2657;DHT22;1338;48.176;11.792;2024-02-23T03:20:04;5.90;99.90
2657;DHT22;1338;48.176;11.792;2024-02-23T03:22:37;5.80;99.90
2657;DHT22;1338;48.176;11.792;2024-02-23T03:25:08;5.90;99.90
2657;DHT22;1338;48.176;11.792;2024-02-23T03:27:38;6.00;99.90
2657;DHT22;1338;48.176;11.792;2024-02-23T03:30:07;5.90;99.90
2657;DHT22;1338;48.176;11.792;2024-02-23T03:32:36;5.80;99.90
2657;DHT22;1338;48.176;11.792;2024-02-23T03:35:07;5.70;99.90
2657;DHT22;1338;48.176;11.792;2024-02-23T03:37:36;5.90;99.90
2657;DHT22;1338;48.176;11.792;2024-02-23T03:40:05;5.90;99.90
2657;DHT22;1338;48.176;11.792;2024-02-23T03:42:34;5.90;99.90
2657;DHT22;1338;48.176;11.792;2024-02-23T03:45:05;6.00;99.90
2657;DHT22;1338;48.176;11.792;2024-02-23T03:47:33;6.00;99.90
2657;DHT22;1338;48.176;11.792;2024-02-23T03:50:02;5.90;99.90
2657;DHT22;1338;48.176;11.792;2024-02-23T03:52:31;5.80;99.90
2657;DHT22;1338;48.176;11.792;2024-02-23T03:54:59;5.80;99.90
2657;DHT22;1338;48.176;11.792;2024-02-23T03:57:27;5.90;99.90
2657;DHT22;1338;48.176;11.792;2024-02-23T03:59:56;5.80;99.90
2657;DHT22;1338;48.176;11.792;2024-02-23T04:02:26;5.80;99.90
2657;DHT22;1338;48.176;11.792;2024-02-23T04:04:54;5.80;99.90
2657;DHT22;1338;48.176;11.792;2024-02-23T04:07:23;5.80;99.90
2657;DHT22;1338;48.176;11.792;2024-02-23T04:09:51;5.80;99.90
2657;DHT22;1338;48.176;11.792;2024-02-23T04:12:22;5.70;99.90
2657;DHT22;1338;48.176;11.792;2024-02-23T04:14:50;5.60;99.90
2657;DHT22;1338;48.176;11.792;2024-02-23T04:17:19;5.60;99.90
2657;DHT22;1338;48.176;11.792;2024-02-23T04:19:49;5.60;99.90
2657;DHT22;1338;48.176;11.792;2024-02-23T04:22:17;5.60;99.90
2657;DHT22;1338;48.176;11.792;2024-02-23T04:24:45;5.40;99.90
2657;DHT22;1338;48.176;11.792;2024-02-23T04:27:14;5.40;1.00
2657;DHT22;1338;48.176;11.792;2024-02-23T04:29:42;5.40;1.00
2657;DHT22;1338;48.176;11.792;2024-02-23T04:32:10;5.30;1.00
2657;DHT22;1338;48.176;11.792;2024-02-23T04:34:38;5.20;1.00
2657;DHT22;1338;48.176;11.792;2024-02-23T04:37:09;5.00;1.00
2657;DHT22;1338;48.176;11.792;2024-02-23T04:39:37;5.00;1.00
2657;DHT22;1338;48.176;11.792;2024-02-23T04:42:08;4.80;78.90
2657;DHT22;1338;48.176;11.792;2024-02-23T04:44:37;5.10;99.90
2657;DHT22;1338;48.176;11.792;2024-02-23T04:47:06;5.10;99.90
2657;DHT22;1338;48.176;11.792;2024-02-23T04:49:34;4.90;99.90
2657;DHT22;1338;48.176;11.792;2024-02-23T04:52:02;4.90;1.00
2657;DHT22;1338;48.176;11.792;2024-02-23T04:54:33;4.90;1.00
2657;DHT22;1338;48.176;11.792;2024-02-23T04:57:02;5.10;1.00
2657;DHT22;1338;48.176;11.792;2024-02-23T04:59:30;5.00;1.00
2657;DHT22;1338;48.176;11.792;2024-02-23T05:01:59;5.10;1.00
2657;DHT22;1338;48.176;11.792;2024-02-23T05:04:27;5.00;1.00
2657;DHT22;1338;48.176;11.792;2024-02-23T05:06:56;5.10;1.00
2657;DHT22;1338;48.176;11.792;2024-02-23T05:09:25;5.10;1.00
2657;DHT22;1338;48.176;11.792;2024-02-23T05:11:55;5.00;1.00
2657;DHT22;1338;48.176;11.792;2024-02-23T05:14:23;4.90;1.00
2657;DHT22;1338;48.176;11.792;2024-02-23T05:16:52;4.80;1.00
2657;DHT22;1338;48.176;11.792;2024-02-23T05:19:20;4.80;1.00
2657;DHT22;1338;48.176;11.792;2024-02-23T05:21:49;4.70;1.00
2657;DHT22;1338;48.176;11.792;2024-02-23T05:24:17;4.70;1.00
2657;DHT22;1338;48.176;11.792;2024-02-23T05:26:45;4.80;1.00
2657;DHT22;1338;48.176;11.792;2024-02-23T05:29:15;4.70;1.00
2657;DHT22;1338;48.176;11.792;2024-02-23T05:31:47;4.60;1.00
2657;DHT22;1338;48.176;11.792;2024-02-23T05:34:16;4.60;1.00
2657;DHT22;1338;48.176;11.792;2024-02-23T05:36:46;4.60;1.00
2657;DHT22;1338;48.176;11.792;2024-02-23T05:39:15;4.60;1.00
2657;DHT22;1338;48.176;11.792;2024-02-23T05:41:44;4.50;1.00
2657;DHT22;1338;48.176;11.792;2024-02-23T05:44:12;4.50;1.00
2657;DHT22;1338;48.176;11.792;2024-02-23T05:46:43;4.50;1.00
2657;DHT22;1338;48.176;11.792;2024-02-23T05:49:12;4.40;1.00
2657;DHT22;1338;48.176;11.792;2024-02-23T05:51:41;4.50;33.60
2657;DHT22;1338;48.176;11.792;2024-02-23T05:54:09;4.40;1.00
2657;DHT22;1338;48.176;11.792;2024-02-23T05:56:38;4.40;1.00
2657;DHT22;1338;48.176;11.792;2024-02-23T05:59:08;4.40;1.00
2657;DHT22;1338;48.176;11.792;2024-02-23T06:01:36;4.40;16.00
2657;DHT22;1338;48.176;11.792;2024-02-23T06:04:05;4.40;1.00
2657;DHT22;1338;48.176;11.792;2024-02-23T06:06:34;4.40;99.90
2657;DHT22;1338;48.176;11.792;2024-02-23T06:09:02;4.30;99.90
2657;DHT22;1338;48.176;11.792;2024-02-23T06:11:32;4.30;99.90
2657;DHT22;1338;48.176;11.792;2024-02-23T06:14:03;4.30;99.90
2657;DHT22;1338;48.176;11.792;2024-02-23T06:16:31;4.30;99.90
2657;DHT22;1338;48.176;11.792;2024-02-23T06:18:59;4.30;99.90
2657;DHT22;1338;48.176;11.792;2024-02-23T06:21:29;4.20;99.90
2657;DHT22;1338;48.176;11.792;2024-02-23T06:23:57;4.20;1.00
2657;DHT22;1338;48.176;11.792;2024-02-23T06:26:25;4.20;1.00
2657;DHT22;1338;48.176;11.792;2024-02-23T06:28:53;4.20;1.00
2657;DHT22;1338;48.176;11.792;2024-02-23T06:31:23;4.20;1.00
2657;DHT22;1338;48.176;11.792;2024-02-23T06:33:51;4.20;1.00
2657;DHT22;1338;48.176;11.792;2024-02-23T06:36:20;4.20;1.00
2657;DHT22;1338;48.176;11.792;2024-02-23T06:38:49;4.20;1.00
2657;DHT22;1338;48.176;11.792;2024-02-23T06:41:17;4.20;1.00
2657;DHT22;1338;48.176;11.792;2024-02-23T06:43:48;4.30;99.90
2657;DHT22;1338;48.176;11.792;2024-02-23T06:46:19;4.40;99.90
2657;DHT22;1338;48.176;11.792;2024-02-23T06:48:47;4.40;99.90
2657;DHT22;1338;48.176;11.792;2024-02-23T06:51:16;4.40;99.90
2657;DHT22;1338;48.176;11.792;2024-02-23T06:53:44;4.50;99.90
2657;DHT22;1338;48.176;11.792;2024-02-23T06:56:14;4.50;99.90
2657;DHT22;1338;48.176;11.792;2024-02-23T06:58:42;4.50;99.90
2657;DHT22;1338;48.176;11.792;2024-02-23T07:01:11;4.50;93.40
2657;DHT22;1338;48.176;11.792;2024-02-23T07:03:40;4.60;1.00
2657;DHT22;1338;48.176;11.792;2024-02-23T07:06:11;4.60;1.00
2657;DHT22;1338;48.176;11.792;2024-02-23T07:08:39;4.70;1.00
2657;DHT22;1338;48.176;11.792;2024-02-23T07:11:07;4.60;1.00
2657;DHT22;1338;48.176;11.792;2024-02-23T07:13:37;4.60;1.00
2657;DHT22;1338;48.176;11.792;2024-02-23T07:16:06;4.70;1.00
2657;DHT22;1338;48.176;11.792;2024-02-23T07:18:34;4.70;1.00
2657;DHT22;1338;48.176;11.792;2024-02-23T07:21:02;4.60;1.00
2657;DHT22;1338;48.176;11.792;2024-02-23T07:23:31;4.60;1.20
2657;DHT22;1338;48.176;11.792;2024-02-23T07:25:59;4.60;98.10
2657;DHT22;1338;48.176;11.792;2024-02-23T07:28:28;4.50;1.00
2657;DHT22;1338;48.176;11.792;2024-02-23T07:30:57;4.50;1.00
2657;DHT22;1338;48.176;11.792;2024-02-23T07:33:26;4.60;1.00
2657;DHT22;1338;48.176;11.792;2024-02-23T07:35:54;4.60;1.00
2657;DHT22;1338;48.176;11.792;2024-02-23T07:38:23;4.60;1.00
2657;DHT22;1338;48.176;11.792;2024-02-23T07:40:51;4.60;1.00
2657;DHT22;1338;48.176;11.792;2024-02-23T07:43:19;4.70;1.00
2657;DHT22;1338;48.176;11.792;2024-02-23T07:45:47;4.80;1.00
2657;DHT22;1338;48.176;11.792;2024-02-23T07:48:17;4.70;1.00
2657;DHT22;1338;48.176;11.792;2024-02-23T07:50:45;4.70;1.00
2657;DHT22;1338;48.176;11.792;2024-02-23T07:53:14;4.60;1.00
2657;DHT22;1338;48.176;11.792;2024-02-23T07:55:43;4.60;1.00
2657;DHT22;1338;48.176;11.792;2024-02-23T07:58:11;4.60;1.00
2657;DHT22;1338;48.176;11.792;2024-02-23T08:00:40;4.70;1.00
2657;DHT22;1338;48.176;11.792;2024-02-23T08:03:08;4.70;1.00
2657;DHT22;1338;48.176;11.792;2024-02-23T08:05:38;4.70;1.00
2657;DHT22;1338;48.176;11.792;2024-02-23T08:08:07;4.80;1.00
2657;DHT22;1338;48.176;11.792;2024-02-23T08:10:38;4.80;1.00
2657;DHT22;1338;48.176;11.792;2024-02-23T08:13:07;4.80;1.00
2657;DHT22;1338;48.176;11.792;2024-02-23T08:15:37;4.90;1.00
2657;DHT22;1338;48.176;11.792;2024-02-23T08:18:06;4.90;1.00
2657;DHT22;1338;48.176;11.792;2024-02-23T08:20:34;5.00;1.00
2657;DHT22;1338;48.176;11.792;2024-02-23T08:23:04;5.10;1.00
2657;DHT22;1338;48.176;11.792;2024-02-23T08:25:32;5.20;99.90
2657;DHT22;1338;48.176;11.792;2024-02-23T08:28:00;5.20;99.90
2657;DHT22;1338;48.176;11.792;2024-02-23T08:30:28;5.20;99.90
2657;DHT22;1338;48.176;11.792;2024-02-23T08:32:57;5.40;99.90
2657;DHT22;1338;48.176;11.792;2024-02-23T08:35:26;5.50;99.90
2657;DHT22;1338;48.176;11.792;2024-02-23T08:37:54;5.40;99.90
2657;DHT22;1338;48.176;11.792;2024-02-23T08:40:24;5.50;99.90
2657;DHT22;1338;48.176;11.792;2024-02-23T08:42:52;5.70;99.90
2657;DHT22;1338;48.176;11.792;2024-02-23T08:45:21;5.60;99.90
2657;DHT22;1338;48.176;11.792;2024-02-23T08:47:49;5.50;99.90
2657;DHT22;1338;48.176;11.792;2024-02-23T08:50:18;5.50;99.90
2657;DHT22;1338;48.176;11.792;2024-02-23T08:52:47;5.60;99.90
2657;DHT22;1338;48.176;11.792;2024-02-23T08:55:16;5.70;99.90
2657;DHT22;1338;48.176;11.792;2024-02-23T08:57:47;5.70;99.90
2657;DHT22;1338;48.176;11.792;2024-02-23T09:00:16;5.70;99.90
2657;DHT22;1338;48.176;11.792;2024-02-23T09:02:45;5.70;99.90
2657;DHT22;1338;48.176;11.792;2024-02-23T09:05:13;5.70;99.90
2657;DHT22;1338;48.176;11.792;2024-02-23T09:07:42;5.60;99.90
2657;DHT22;1338;48.176;11.792;2024-02-23T09:10:12;5.70;99.90
2657;DHT22;1338;48.176;11.792;2024-02-23T09:12:40;5.40;99.90
2657;DHT22;1338;48.176;11.792;2024-02-23T09:15:11;5.30;99.90
2657;DHT22;1338;48.176;11.792;2024-02-23T09:17:40;5.30;99.90
2657;DHT22;1338;48.176;11.792;2024-02-23T09:20:09;5.40;99.90
2657;DHT22;1338;48.176;11.792;2024-02-23T09:22:38;5.50;99.90
2657;DHT22;1338;48.176;11.792;2024-02-23T09:25:07;5.40;99.90
2657;DHT22;1338;48.176;11.792;2024-02-23T09:27:35;5.40;76.80
2657;DHT22;1338;48.176;11.792;2024-02-23T09:30:13;5.40;57.70
2657;DHT22;1338;48.176;11.792;2024-02-23T09:32:42;5.40;63.70
2657;DHT22;1338;48.176;11.792;2024-02-23T09:35:11;5.40;60.60
2657;DHT22;1338;48.176;11.792;2024-02-23T09:37:40;5.40;31.50
2657;DHT22;1338;48.176;11.792;2024-02-23T09:40:09;5.40;1.00
2657;DHT22;1338;48.176;11.792;2024-02-23T09:42:38;5.40;1.00
2657;DHT22;1338;48.176;11.792;2024-02-23T09:45:07;5.50;1.00
2657;DHT22;1338;48.176;11.792;2024-02-23T09:47:37;5.40;1.00
2657;DHT22;1338;48.176;11.792;2024-02-23T09:50:07;5.50;1.00
2657;DHT22;1338;48.176;11.792;2024-02-23T09:52:36;5.50;1.00
2657;DHT22;1338;48.176;11.792;2024-02-23T09:55:05;5.50;1.00
2657;DHT22;1338;48.176;11.792;2024-02-23T09:57:34;5.50;1.00
2657;DHT22;1338;48.176;11.792;2024-02-23T10:00:02;5.50;1.00
2657;DHT22;1338;48.176;11.792;2024-02-23T10:02:39;5.50;1.00
2657;DHT22;1338;48.176;11.792;2024-02-23T10:05:10;5.60;1.00
2657;DHT22;1338;48.176;11.792;2024-02-23T10:07:40;5.50;1.00
2657;DHT22;1338;48.176;11.792;2024-02-23T10:10:09;5.60;1.00
2657;DHT22;1338;48.176;11.792;2024-02-23T10:12:37;5.40;1.00
2657;DHT22;1338;48.176;11.792;2024-02-23T10:15:07;5.40;1.00
2657;DHT22;1338;48.176;11.792;2024-02-23T10:17:36;5.30;1.00
2657;DHT22;1338;48.176;11.792;2024-02-23T10:20:08;5.20;1.00
2657;DHT22;1338;48.176;11.792;2024-02-23T10:22:37;4.90;1.00
2657;DHT22;1338;48.176;11.792;2024-02-23T10:25:06;4.80;1.00
2657;DHT22;1338;48.176;11.792;2024-02-23T10:27:41;4.50;1.00
2657;DHT22;1338;48.176;11.792;2024-02-23T10:31:27;4.50;1.00
2657;DHT22;1338;48.176;11.792;2024-02-23T10:33:57;4.30;1.00
2657;DHT22;1338;48.176;11.792;2024-02-23T10:36:29;4.20;11.40
2657;DHT22;1338;48.176;11.792;2024-02-23T10:39:01;4.50;99.90
2657;DHT22;1338;48.176;11.792;2024-02-23T10:41:35;4.70;99.90
2657;DHT22;1338;48.176;11.792;2024-02-23T10:44:03;4.70;99.90
2657;DHT22;1338;48.176;11.792;2024-02-23T10:46:32;4.80;99.90
2657;DHT22;1338;48.176;11.792;2024-02-23T10:49:01;4.90;99.90
2657;DHT22;1338;48.176;11.792;2024-02-23T10:51:33;5.00;99.90
2657;DHT22;1338;48.176;11.792;2024-02-23T10:54:02;5.00;99.90
2657;DHT22;1338;48.176;11.792;2024-02-23T10:56:30;5.10;99.90
2657;DHT22;1338;48.176;11.792;2024-02-23T10:58:59;5.20;99.90
2657;DHT22;1338;48.176;11.792;2024-02-23T11:01:27;5.20;99.90
2657;DHT22;1338;48.176;11.792;2024-02-23T11:03:56;5.20;77.50
2657;DHT22;1338;48.176;11.792;2024-02-23T11:06:27;5.30;91.60
2657;DHT22;1338;48.176;11.792;2024-02-23T11:09:06;5.10;65.30
2657;DHT22;1338;48.176;11.792;2024-02-23T11:11:37;5.30;98.10
2657;DHT22;1338;48.176;11.792;2024-02-23T11:14:07;5.20;69.20
2657;DHT22;1338;48.176;11.792;2024-02-23T11:16:39;5.20;58.40
2657;DHT22;1338;48.176;11.792;2024-02-23T11:19:09;5.20;57.80
2657;DHT22;1338;48.176;11.792;2024-02-23T11:21:39;5.40;92.00
2657;DHT22;1338;48.176;11.792;2024-02-23T11:24:16;5.20;95.70
2657;DHT22;1338;48.176;11.792;2024-02-23T11:26:50;5.20;99.90
2657;DHT22;1338;48.176;11.792;2024-02-23T11:29:18;5.30;99.90
2657;DHT22;1338;48.176;11.792;2024-02-23T11:31:47;5.10;61.00
2657;DHT22;1338;48.176;11.792;2024-02-23T11:34:21;5.00;81.10
2657;DHT22;1338;48.176;11.792;2024-02-23T11:36:51;4.90;99.90
2657;DHT22;1338;48.176;11.792;2024-02-23T11:39:22;4.90;99.90
2657;DHT22;1338;48.176;11.792;2024-02-23T11:41:51;4.90;87.90
2657;DHT22;1338;48.176;11.792;2024-02-23T11:44:20;4.90;99.90
2657;DHT22;1338;48.176;11.792;2024-02-23T11:46:48;4.90;99.90
2657;DHT22;1338;48.176;11.792;2024-02-23T11:49:17;4.80;99.90
2657;DHT22;1338;48.176;11.792;2024-02-23T11:51:45;4.90;99.90
2657;DHT22;1338;48.176;11.792;2024-02-23T11:54:14;5.10;89.50
2657;DHT22;1338;48.176;11.792;2024-02-23T11:56:44;5.00;56.30
2657;DHT22;1338;48.176;11.792;2024-02-23T11:59:13;4.90;23.40
2657;DHT22;1338;48.176;11.792;2024-02-23T12:01:41;4.90;27.10
2657;DHT22;1338;48.176;11.792;2024-02-23T12:04:09;5.10;20.70
2657;DHT22;1338;48.176;11.792;2024-02-23T12:06:38;5.00;8.20
2657;DHT22;1338;48.176;11.792;2024-02-23T12:09:07;5.20;3.30
2657;DHT22;1338;48.176;11.792;2024-02-23T12:11:35;5.10;1.00
2657;DHT22;1338;48.176;11.792;2024-02-23T12:14:05;5.00;1.00
2657;DHT22;1338;48.176;11.792;2024-02-23T12:16:35;5.20;1.00
2657;DHT22;1338;48.176;11.792;2024-02-23T12:19:04;5.20;1.00
2657;DHT22;1338;48.176;11.792;2024-02-23T12:21:34;5.00;1.00
2657;DHT22;1338;48.176;11.792;2024-02-23T12:24:04;5.00;1.00
2657;DHT22;1338;48.176;11.792;2024-02-23T12:26:34;4.90;1.00
2657;DHT22;1338;48.176;11.792;2024-02-23T12:29:05;5.00;1.00
2657;DHT22;1338;48.176;11.792;2024-02-23T12:31:33;5.10;1.00
2657;DHT22;1338;48.176;11.792;2024-02-23T12:34:02;5.20;1.00
2657;DHT22;1338;48.176;11.792;2024-02-23T12:36:31;5.10;1.00
2657;DHT22;1338;48.176;11.792;2024-02-23T12:39:02;5.30;1.00
2657;DHT22;1338;48.176;11.792;2024-02-23T12:41:30;5.20;1.00
2657;DHT22;1338;48.176;11.792;2024-02-23T12:43:59;5.10;1.00
2657;DHT22;1338;48.176;11.792;2024-02-23T12:46:28;5.30;1.00
2657;DHT22;1338;48.176;11.792;2024-02-23T12:48:56;5.20;1.00
2657;DHT22;1338;48.176;11.792;2024-02-23T12:51:26;5.10;1.00
2657;DHT22;1338;48.176;11.792;2024-02-23T12:53:54;5.00;1.00
2657;DHT22;1338;48.176;11.792;2024-02-23T12:56:23;5.00;1.00
2657;DHT22;1338;48.176;11.792;2024-02-23T12:58:52;5.20;1.00
2657;DHT22;1338;48.176;11.792;2024-02-23T13:01:21;5.30;1.00
2657;DHT22;1338;48.176;11.792;2024-02-23T13:03:51;5.30;1.00
2657;DHT22;1338;48.176;11.792;2024-02-23T13:06:20;5.10;1.00
2657;DHT22;1338;48.176;11.792;2024-02-23T13:08:48;5.00;1.00
2657;DHT22;1338;48.176;11.792;2024-02-23T13:11:16;5.10;1.00
2657;DHT22;1338;48.176;11.792;2024-02-23T13:13:45;5.20;1.00
2657;DHT22;1338;48.176;11.792;2024-02-23T13:16:14;5.40;1.00
2657;DHT22;1338;48.176;11.792;2024-02-23T13:18:43;5.00;1.00
2657;DHT22;1338;48.176;11.792;2024-02-23T13:21:15;5.20;1.00
2657;DHT22;1338;48.176;11.792;2024-02-23T13:23:43;5.20;1.00
2657;DHT22;1338;48.176;11.792;2024-02-23T13:26:12;5.20;1.00
2657;DHT22;1338;48.176;11.792;2024-02-23T13:28:42;5.00;1.00
2657;DHT22;1338;48.176;11.792;2024-02-23T13:31:11;5.20;1.00
2657;DHT22;1338;48.176;11.792;2024-02-23T13:33:40;5.00;1.00
2657;DHT22;1338;48.176;11.792;2024-02-23T13:36:09;5.10;1.00
2657;DHT22;1338;48.176;11.792;2024-02-23T13:38:38;5.10;1.00
2657;DHT22;1338;48.176;11.792;2024-02-23T13:41:08;5.10;1.00
2657;DHT22;1338;48.176;11.792;2024-02-23T13:43:38;4.90;1.00
2657;DHT22;1338;48.176;11.792;2024-02-23T13:46:06;4.80;1.00
2657;DHT22;1338;48.176;11.792;2024-02-23T13:48:35;4.90;1.00
2657;DHT22;1338;48.176;11.792;2024-02-23T13:51:05;4.80;1.00
2657;DHT22;1338;48.176;11.792;2024-02-23T13:53:33;4.70;1.00
2657;DHT22;1338;48.176;11.792;2024-02-23T13:56:06;4.60;1.00
2657;DHT22;1338;48.176;11.792;2024-02-23T13:58:35;4.80;1.00
2657;DHT22;1338;48.176;11.792;2024-02-23T14:01:03;4.90;1.00
2657;DHT22;1338;48.176;11.792;2024-02-23T14:03:32;4.90;1.00
2657;DHT22;1338;48.176;11.792;2024-02-23T14:06:01;5.00;1.00
2657;DHT22;1338;48.176;11.792;2024-02-23T14:08:29;4.80;1.00
2657;DHT22;1338;48.176;11.792;2024-02-23T14:11:01;5.00;1.00
2657;DHT22;1338;48.176;11.792;2024-02-23T14:13:30;4.90;1.00
2657;DHT22;1338;48.176;11.792;2024-02-23T14:15:59;5.10;1.00
2657;DHT22;1338;48.176;11.792;2024-02-23T14:18:28;4.90;1.00
2657;DHT22;1338;48.176;11.792;2024-02-23T14:20:59;4.90;1.00
2657;DHT22;1338;48.176;11.792;2024-02-23T14:23:27;4.90;1.00
2657;DHT22;1338;48.176;11.792;2024-02-23T14:25:56;4.70;1.00
2657;DHT22;1338;48.176;11.792;2024-02-23T14:28:24;4.90;1.00
2657;DHT22;1338;48.176;11.792;2024-02-23T14:30:54;4.60;1.00
2657;DHT22;1338;48.176;11.792;2024-02-23T14:33:23;4.80;1.00
2657;DHT22;1338;48.176;11.792;2024-02-23T14:35:52;4.60;1.00
2657;DHT22;1338;48.176;11.792;2024-02-23T14:38:22;4.50;1.00
2657;DHT22;1338;48.176;11.792;2024-02-23T14:40:51;4.80;1.00
2657;DHT22;1338;48.176;11.792;2024-02-23T14:43:20;4.90;1.00
2657;DHT22;1338;48.176;11.792;2024-02-23T14:45:49;4.70;1.00
2657;DHT22;1338;48.176;11.792;2024-02-23T14:48:20;4.80;1.00
2657;DHT22;1338;48.176;11.792;2024-02-23T14:50:49;4.60;1.00
2657;DHT22;1338;48.176;11.792;2024-02-23T14:53:18;4.80;1.00
2657;DHT22;1338;48.176;11.792;2024-02-23T14:55:46;4.70;1.00
2657;DHT22;1338;48.176;11.792;2024-02-23T14:58:15;4.70;1.00
2657;DHT22;1338;48.176;11.792;2024-02-23T15:00:44;4.60;1.00
2657;DHT22;1338;48.176;11.792;2024-02-23T15:03:12;4.50;1.00
2657;DHT22;1338;48.176;11.792;2024-02-23T15:05:43;4.60;1.00
2657;DHT22;1338;48.176;11.792;2024-02-23T15:08:11;4.50;1.00
2657;DHT22;1338;48.176;11.792;2024-02-23T15:10:40;4.70;1.00
2657;DHT22;1338;48.176;11.792;2024-02-23T15:13:09;4.50;1.00
2657;DHT22;1338;48.176;11.792;2024-02-23T15:15:40;4.50;1.00
2657;DHT22;1338;48.176;11.792;2024-02-23T15:18:09;4.50;1.00
2657;DHT22;1338;48.176;11.792;2024-02-23T15:20:37;4.70;1.00
2657;DHT22;1338;48.176;11.792;2024-02-23T15:23:07;4.50;1.00
2657;DHT22;1338;48.176;11.792;2024-02-23T15:25:36;4.60;1.00
2657;DHT22;1338;48.176;11.792;2024-02-23T15:28:10;4.50;1.00
2657;DHT22;1338;48.176;11.792;2024-02-23T15:30:38;4.20;1.00
2657;DHT22;1338;48.176;11.792;2024-02-23T15:33:07;4.20;1.00
2657;DHT22;1338;48.176;11.792;2024-02-23T15:35:35;4.30;1.00
2657;DHT22;1338;48.176;11.792;2024-02-23T15:38:04;4.40;1.00
2657;DHT22;1338;48.176;11.792;2024-02-23T15:40:34;4.00;1.00
2657;DHT22;1338;48.176;11.792;2024-02-23T15:43:03;4.10;1.00
2657;DHT22;1338;48.176;11.792;2024-02-23T15:45:31;3.90;1.00
2657;DHT22;1338;48.176;11.792;2024-02-23T15:48:00;4.30;1.00
2657;DHT22;1338;48.176;11.792;2024-02-23T15:50:28;4.40;1.00
2657;DHT22;1338;48.176;11.792;2024-02-23T15:53:18;4.20;1.00
2657;DHT22;1338;48.176;11.792;2024-02-23T15:55:48;4.20;1.00
2657;DHT22;1338;48.176;11.792;2024-02-23T15:58:16;3.90;1.00
2657;DHT22;1338;48.176;11.792;2024-02-23T16:00:47;4.00;1.00
2657;DHT22;1338;48.176;11.792;2024-02-23T16:03:15;3.90;1.00
2657;DHT22;1338;48.176;11.792;2024-02-23T16:05:46;4.10;1.00
2657;DHT22;1338;48.176;11.792;2024-02-23T16:08:15;3.70;1.00
2657;DHT22;1338;48.176;11.792;2024-02-23T16:10:43;4.00;1.00
2657;DHT22;1338;48.176;11.792;2024-02-23T16:13:13;3.80;1.00
2657;DHT22;1338;48.176;11.792;2024-02-23T16:15:42;3.60;1.00
2657;DHT22;1338;48.176;11.792;2024-02-23T16:18:10;3.50;1.00
2657;DHT22;1338;48.176;11.792;2024-02-23T16:20:39;3.90;1.00
2657;DHT22;1338;48.176;11.792;2024-02-23T16:23:07;3.70;1.00